createdAt,value
2022-08-11T00:00:02.529Z,2.42
2022-08-11T00:05:11.631Z,2.40
2022-08-11T00:10:14.738Z,2.10
2022-08-11T00:15:16.655Z,2.13
2022-08-11T00:20:17.982Z,2.17
2022-08-11T00:25:20.613Z,3.10
2022-08-11T00:30:22.010Z,2.63
2022-08-11T00:35:51.317Z,2.63
2022-08-11T00:40:53.614Z,2.50
2022-08-11T00:46:10.614Z,2.60
2022-08-11T00:51:57.707Z,2.50
2022-08-11T00:56:57.068Z,2.10
2022-08-11T01:01:58.343Z,2.40
2022-08-11T01:07:14.693Z,2.40
2022-08-11T01:12:35.798Z,2.30
2022-08-11T01:17:55.580Z,2.27
2022-08-11T01:23:17.374Z,2.57
2022-08-11T01:28:37.506Z,2.53
2022-08-11T01:33:41.758Z,2.40
2022-08-11T01:39:01.352Z,2.30
2022-08-11T01:44:27.429Z,2.47
2022-08-11T01:50:09.593Z,2.70
2022-08-11T01:55:19.157Z,2.60
2022-08-11T02:00:22.145Z,2.67
2022-08-11T02:05:28.984Z,3.00
2022-08-11T02:10:56.520Z,2.80
2022-08-11T02:16:08.327Z,2.60
2022-08-11T02:21:30.635Z,2.78
2022-08-11T02:26:50.285Z,2.70
2022-08-11T02:32:30.714Z,2.60
2022-08-11T02:37:32.436Z,2.85
2022-08-11T02:42:39.789Z,2.78
2022-08-11T02:48:03.833Z,2.60
2022-08-11T02:53:21.615Z,2.65
2022-08-11T02:58:27.164Z,2.70
2022-08-11T03:03:38.168Z,2.60
2022-08-11T03:08:39.736Z,2.63
2022-08-11T03:14:07.786Z,3.00
2022-08-11T03:19:18.322Z,2.70
2022-08-11T03:24:25.264Z,2.60
2022-08-11T03:29:31.689Z,2.95
2022-08-11T03:34:37.922Z,3.10
2022-08-11T03:39:55.502Z,2.80
2022-08-11T03:44:59.478Z,2.80
2022-08-11T03:50:10.361Z,3.20
2022-08-11T03:55:30.659Z,2.97
2022-08-11T04:00:50.573Z,2.70
2022-08-11T04:06:11.819Z,3.05
2022-08-11T04:11:20.502Z,3.40
2022-08-11T04:16:40.259Z,2.70
2022-08-11T04:22:00.469Z,2.78
2022-08-11T04:27:36.772Z,2.83
2022-08-11T04:32:46.672Z,3.57
2022-08-11T04:38:00.086Z,2.97
2022-08-11T04:43:23.675Z,3.20
2022-08-11T04:49:02.678Z,3.03
2022-08-11T04:54:41.604Z,3.37
2022-08-11T05:00:18.637Z,3.22
2022-08-11T05:05:38.454Z,3.50
2022-08-11T05:10:58.546Z,3.20
2022-08-11T05:16:26.433Z,3.10
2022-08-11T05:21:46.197Z,3.45
2022-08-11T05:27:13.321Z,3.33
2022-08-11T05:32:35.486Z,3.53
2022-08-11T05:38:02.356Z,3.17
2022-08-11T05:43:27.457Z,3.70
2022-08-11T05:48:54.420Z,3.75
2022-08-11T05:54:28.639Z,3.10
2022-08-11T05:59:31.470Z,3.53
2022-08-11T06:04:33.570Z,3.22
2022-08-11T06:09:36.441Z,3.38
2022-08-11T06:14:44.621Z,3.20
2022-08-11T06:19:47.233Z,3.37
2022-08-11T06:24:53.027Z,3.50
2022-08-11T06:29:55.824Z,3.13
2022-08-11T06:34:59.250Z,3.30
2022-08-11T06:40:12.820Z,3.05
2022-08-11T06:45:43.569Z,2.97
2022-08-11T06:51:13.743Z,2.90
2022-08-11T06:56:34.805Z,3.20
2022-08-11T07:01:55.128Z,3.22
2022-08-11T07:07:21.361Z,2.73
2022-08-11T07:12:55.878Z,3.00
2022-08-11T07:18:17.213Z,3.00
2022-08-11T07:23:36.894Z,3.20
2022-08-11T07:28:58.485Z,3.03
2022-08-11T07:34:18.074Z,3.20
2022-08-11T07:39:21.254Z,3.42
2022-08-11T07:44:29.404Z,3.30
2022-08-11T07:49:55.620Z,3.10
2022-08-11T07:54:58.603Z,3.38
2022-08-11T08:00:20.550Z,3.27
2022-08-11T08:05:40.430Z,3.27
2022-08-11T08:11:01.784Z,3.45
2022-08-11T08:16:21.673Z,3.60
2022-08-11T08:21:23.026Z,3.07
2022-08-11T08:26:43.323Z,3.53
2022-08-11T08:31:54.136Z,3.25
2022-08-11T08:36:55.733Z,3.20
2022-08-11T08:41:58.086Z,3.40
2022-08-11T08:47:00.284Z,3.22
2022-08-11T08:52:25.376Z,3.53
2022-08-11T08:57:28.011Z,3.50
2022-08-11T09:02:33.832Z,3.17
2022-08-11T09:07:39.333Z,3.63
2022-08-11T09:12:44.913Z,3.40
2022-08-11T09:17:47.083Z,3.83
2022-08-11T09:24:07.315Z,3.30
2022-08-11T09:28:30.580Z,3.50
2022-08-11T09:33:33.111Z,3.28
2022-08-11T09:38:53.302Z,3.05
2022-08-11T09:44:13.085Z,3.50
2022-08-11T09:49:14.516Z,3.53
2022-08-11T09:54:18.786Z,3.25
2022-08-11T09:59:21.182Z,3.38
2022-08-11T10:04:35.606Z,2.97
2022-08-11T10:09:49.093Z,3.20
2022-08-11T10:15:12.218Z,2.95
2022-08-11T10:20:13.815Z,3.13
2022-08-11T10:25:34.220Z,3.00
2022-08-11T10:30:54.456Z,2.90
2022-08-11T10:35:55.901Z,3.00
2022-08-11T10:41:15.949Z,2.50
2022-08-11T10:46:35.766Z,2.65
2022-08-11T10:51:58.631Z,2.60
2022-08-11T10:57:19.368Z,2.30
2022-08-11T11:02:21.218Z,2.30
2022-08-11T11:07:24.860Z,2.60
2022-08-11T11:12:47.701Z,2.90
2022-08-11T11:17:56.043Z,2.60
2022-08-11T11:22:59.186Z,2.78
2022-08-11T11:28:14.813Z,2.50
2022-08-11T11:33:32.377Z,2.53
2022-08-11T11:38:56.390Z,2.90
2022-08-11T11:43:58.143Z,2.50
2022-08-11T11:49:13.996Z,2.40
2022-08-11T11:54:22.262Z,2.60
2022-08-11T11:59:43.840Z,2.30
2022-08-11T12:04:47.717Z,2.27
2022-08-11T12:09:49.224Z,2.25
2022-08-11T12:14:50.761Z,2.50
2022-08-11T12:19:52.162Z,2.63
2022-08-11T12:25:32.362Z,2.37
2022-08-11T12:30:33.745Z,2.70
2022-08-11T12:35:35.689Z,2.40
2022-08-11T12:41:15.169Z,2.50
2022-08-11T12:46:21.655Z,2.60
2022-08-11T12:52:03.020Z,2.47
2022-08-11T12:57:37.107Z,2.40
2022-08-11T13:02:59.037Z,2.78
2022-08-11T13:08:03.961Z,2.42
2022-08-11T13:13:53.954Z,2.70
2022-08-11T13:18:28.244Z,2.80
2022-08-11T13:23:29.649Z,2.65
2022-08-11T13:28:31.488Z,2.80
2022-08-11T13:33:33.321Z,2.60
2022-08-11T13:38:35.187Z,2.40
2022-08-11T13:43:38.036Z,2.50
2022-08-11T13:48:44.953Z,2.40
2022-08-11T13:53:46.337Z,2.30
2022-08-11T13:58:47.753Z,2.35
2022-08-11T14:04:29.681Z,2.60
2022-08-11T14:09:22.070Z,2.50
2022-08-11T14:14:25.164Z,2.30
2022-08-11T14:19:26.799Z,2.10
2022-08-11T14:24:28.359Z,2.50
2022-08-11T14:29:29.777Z,2.30
2022-08-11T14:34:31.955Z,2.38
2022-08-11T14:39:37.756Z,2.20
2022-08-11T14:44:58.991Z,2.30
2022-08-11T14:50:09.904Z,2.40
2022-08-11T14:55:31.051Z,2.30
2022-08-11T15:00:34.141Z,2.17
2022-08-11T15:05:36.745Z,2.20
2022-08-11T15:10:38.170Z,2.30
2022-08-11T15:16:01.482Z,2.40
2022-08-11T15:21:25.608Z,2.30
2022-08-11T15:26:58.678Z,2.50
2022-08-11T15:32:23.678Z,2.50
2022-08-11T15:37:31.435Z,2.28
2022-08-11T15:42:51.556Z,2.35
2022-08-11T15:48:05.886Z,2.30
2022-08-11T15:53:26.339Z,2.20
2022-08-11T15:58:48.873Z,2.40
2022-08-11T16:04:14.231Z,3.05
2022-08-11T16:09:18.278Z,2.43
2022-08-11T16:14:39.957Z,2.30
2022-08-11T16:19:42.798Z,2.33
2022-08-11T16:27:04.132Z,2.00
2022-08-11T16:30:06.969Z,2.17
2022-08-11T16:35:31.846Z,2.45
2022-08-11T16:40:34.682Z,2.50
2022-08-11T16:45:55.455Z,2.33
2022-08-11T16:50:56.940Z,2.45
2022-08-11T16:56:05.009Z,2.15
2022-08-11T17:01:07.172Z,2.10
2022-08-11T17:06:29.570Z,2.40
2022-08-11T17:11:51.375Z,2.30
2022-08-11T17:16:53.010Z,2.40
2022-08-11T17:22:12.999Z,2.45
2022-08-11T17:27:18.994Z,2.30
2022-08-11T17:32:55.834Z,2.40
2022-08-11T17:38:03.955Z,2.23
2022-08-11T17:43:27.499Z,2.50
2022-08-11T17:48:30.094Z,2.28
2022-08-11T17:54:13.416Z,2.27
2022-08-11T17:59:33.525Z,2.20
2022-08-11T18:04:34.899Z,2.40
2022-08-11T18:09:54.979Z,2.40
2022-08-11T18:15:15.335Z,2.65
2022-08-11T18:20:37.402Z,2.60
2022-08-11T18:25:58.854Z,3.50
2022-08-11T18:31:19.691Z,2.53
2022-08-11T18:36:41.328Z,3.13
2022-08-11T18:42:03.640Z,2.92
2022-08-11T18:47:28.315Z,2.73
2022-08-11T18:52:50.794Z,3.00
2022-08-11T18:58:12.102Z,3.03
2022-08-11T19:03:43.349Z,2.40
2022-08-11T19:09:15.457Z,2.55
2022-08-11T19:14:35.194Z,2.90
2022-08-11T19:19:56.106Z,3.07
2022-08-11T19:25:18.334Z,3.03
2022-08-11T19:30:39.835Z,3.22
2022-08-11T19:36:00.769Z,2.90
2022-08-11T19:41:52.362Z,3.53
2022-08-11T19:47:02.671Z,3.00
2022-08-11T19:52:26.891Z,2.80
2022-08-11T19:57:48.217Z,2.90
2022-08-11T20:03:09.479Z,2.78
2022-08-11T20:08:29.839Z,2.58
2022-08-11T20:13:50.507Z,2.70
2022-08-11T20:19:11.158Z,2.60
2022-08-11T20:24:32.562Z,2.63
2022-08-11T20:29:53.945Z,2.78
2022-08-11T20:35:14.395Z,2.50
2022-08-11T20:40:35.259Z,2.30
2022-08-11T20:45:57.196Z,2.60
2022-08-11T20:51:17.718Z,2.70
2022-08-11T20:56:38.191Z,2.75
2022-08-11T21:02:00.638Z,2.47
2022-08-11T21:07:28.997Z,2.60
2022-08-11T21:12:55.204Z,2.70
2022-08-11T21:18:27.511Z,2.45
2022-08-11T21:23:50.515Z,2.40
2022-08-11T21:29:11.784Z,2.50
2022-08-11T21:34:34.257Z,2.58
2022-08-11T21:39:55.053Z,2.70
2022-08-11T21:45:15.801Z,2.63
2022-08-11T21:50:35.534Z,2.97
2022-08-11T21:55:55.753Z,2.80
2022-08-11T22:01:16.127Z,2.50
2022-08-11T22:06:36.814Z,2.90
2022-08-11T22:12:29.902Z,2.60
2022-08-11T22:17:37.196Z,2.67
2022-08-11T22:22:57.647Z,2.80
2022-08-11T22:28:18.061Z,2.58
2022-08-11T22:33:42.109Z,2.72
2022-08-11T22:39:20.208Z,2.70
2022-08-11T22:44:39.964Z,2.75
2022-08-11T22:50:00.932Z,2.67
2022-08-11T22:55:21.247Z,2.53
2022-08-11T23:00:41.209Z,2.40
2022-08-11T23:06:01.552Z,2.97
2022-08-11T23:11:25.365Z,2.70
2022-08-11T23:16:45.044Z,2.80
2022-08-11T23:22:05.828Z,2.80
2022-08-11T23:27:27.530Z,2.90
2022-08-11T23:32:47.848Z,2.47
2022-08-11T23:38:07.893Z,2.75
2022-08-11T23:43:28.179Z,2.90
2022-08-11T23:48:49.317Z,3.00
2022-08-11T23:54:09.514Z,2.90
2022-08-11T23:59:29.801Z,2.90
